createdAt,value
2023-04-24T00:01:02.243Z,10.34
2023-04-24T00:03:30.466Z,10.30
2023-04-24T00:06:00.153Z,10.33
2023-04-24T00:08:28.252Z,10.20
2023-04-24T00:10:56.235Z,10.17
2023-04-24T00:13:25.995Z,10.25
2023-04-24T00:15:54.531Z,10.27
2023-04-24T00:18:22.651Z,10.30
2023-04-24T00:20:50.580Z,10.05
2023-04-24T00:23:18.554Z,10.09
2023-04-24T00:25:46.494Z,10.07
2023-04-24T00:28:14.456Z,10.08
2023-04-24T00:30:43.802Z,10.00
2023-04-24T00:33:11.694Z,10.06
2023-04-24T00:35:39.594Z,9.95
2023-04-24T00:38:07.536Z,9.91
2023-04-24T00:40:35.652Z,10.06
2023-04-24T00:43:03.617Z,10.06
2023-04-24T00:45:32.362Z,10.13
2023-04-24T00:48:02.877Z,9.98
2023-04-24T00:50:31.567Z,10.05
2023-04-24T00:52:59.622Z,9.89
2023-04-24T00:55:28.119Z,10.00
2023-04-24T00:57:56.393Z,9.90
2023-04-24T01:00:24.838Z,10.00
2023-04-24T01:02:55.434Z,9.90
2023-04-24T01:05:24.986Z,9.63
2023-04-24T01:07:52.950Z,9.91
2023-04-24T01:10:21.491Z,9.96
2023-04-24T01:12:49.391Z,9.87
2023-04-24T01:15:17.565Z,9.80
2023-04-24T01:17:46.234Z,9.98
2023-04-24T01:20:15.526Z,9.84
2023-04-24T01:22:45.061Z,9.98
2023-04-24T01:25:12.987Z,9.79
2023-04-24T01:27:41.047Z,9.86
2023-04-24T01:30:10.690Z,9.84
2023-04-24T01:32:39.885Z,9.90
2023-04-24T01:35:09.481Z,9.87
2023-04-24T01:37:38.397Z,9.75
2023-04-24T01:40:09.472Z,9.62
2023-04-24T01:42:37.905Z,9.58
2023-04-24T01:45:07.460Z,9.50
2023-04-24T01:47:35.433Z,9.66
2023-04-24T01:50:03.396Z,9.72
2023-04-24T01:52:32.312Z,9.62
2023-04-24T01:55:02.163Z,9.52
2023-04-24T01:57:32.508Z,9.38
2023-04-24T02:00:00.650Z,9.33
2023-04-24T02:02:29.974Z,9.41
2023-04-24T02:04:58.099Z,9.38
2023-04-24T02:07:26.145Z,9.41
2023-04-24T02:09:54.110Z,9.42
2023-04-24T02:12:22.032Z,9.51
2023-04-24T02:14:51.359Z,9.63
2023-04-24T02:17:20.299Z,9.34
2023-04-24T02:19:48.247Z,9.27
2023-04-24T02:22:16.236Z,9.13
2023-04-24T02:24:44.178Z,9.11
2023-04-24T02:27:12.550Z,9.04
2023-04-24T02:29:40.694Z,9.02
2023-04-24T02:32:12.998Z,8.91
2023-04-24T02:34:41.103Z,9.03
2023-04-24T02:37:09.064Z,8.93
2023-04-24T02:39:37.009Z,8.76
2023-04-24T02:42:05.077Z,8.86
2023-04-24T02:44:32.993Z,8.86
2023-04-24T02:47:01.083Z,8.91
2023-04-24T02:49:30.375Z,8.89
2023-04-24T02:51:58.264Z,8.78
2023-04-24T02:54:26.354Z,8.75
2023-04-24T02:56:54.268Z,8.67
2023-04-24T02:59:22.168Z,8.84
2023-04-24T03:01:50.118Z,8.81
2023-04-24T03:04:21.573Z,8.83
2023-04-24T03:06:52.823Z,8.70
2023-04-24T03:09:20.754Z,8.75
2023-04-24T03:11:49.650Z,8.57
2023-04-24T03:14:17.702Z,8.63
2023-04-24T03:16:45.768Z,8.56
2023-04-24T03:19:13.791Z,8.61
2023-04-24T03:21:42.131Z,8.79
2023-04-24T03:24:11.540Z,8.72
2023-04-24T03:26:39.459Z,8.65
2023-04-24T03:29:07.387Z,8.64
2023-04-24T03:31:35.428Z,8.73
2023-04-24T03:34:03.407Z,8.86
2023-04-24T03:36:31.613Z,8.91
2023-04-24T03:38:59.526Z,8.96
2023-04-24T03:41:28.810Z,9.11
2023-04-24T03:43:56.980Z,8.95
2023-04-24T03:46:25.131Z,8.76
2023-04-24T03:48:53.090Z,8.56
2023-04-24T03:51:21.021Z,8.61
2023-04-24T03:53:48.910Z,8.39
2023-04-24T03:56:16.848Z,8.58
2023-04-24T03:58:46.169Z,8.64
2023-04-24T04:01:14.338Z,8.77
2023-04-24T04:03:42.386Z,8.68
2023-04-24T04:06:12.191Z,8.69
2023-04-24T04:08:40.112Z,8.84
2023-04-24T04:11:08.067Z,8.97
2023-04-24T04:13:35.968Z,9.30
2023-04-24T04:16:05.409Z,9.50
2023-04-24T04:18:33.344Z,9.67
2023-04-24T04:21:02.406Z,9.91
2023-04-24T04:23:30.770Z,10.14
2023-04-24T04:25:58.717Z,10.28
2023-04-24T04:28:27.359Z,10.32
2023-04-24T04:30:56.356Z,10.47
2023-04-24T04:33:26.314Z,10.70
2023-04-24T04:35:54.493Z,10.96
2023-04-24T04:38:22.403Z,11.18
2023-04-24T04:40:50.875Z,11.37
2023-04-24T04:43:18.774Z,11.33
2023-04-24T04:45:46.764Z,11.57
2023-04-24T04:48:15.268Z,11.58
2023-04-24T04:50:44.582Z,11.71
2023-04-24T04:53:13.385Z,11.82
2023-04-24T04:55:41.414Z,12.02
2023-04-24T04:58:09.368Z,12.30
2023-04-24T05:00:38.482Z,12.57
2023-04-24T05:03:20.045Z,12.83
2023-04-24T05:05:50.476Z,13.00
2023-04-24T05:08:26.391Z,13.25
2023-04-24T05:10:54.913Z,13.26
2023-04-24T05:13:35.611Z,13.63
2023-04-24T05:16:07.740Z,13.85
2023-04-24T05:18:35.833Z,13.98
2023-04-24T05:21:05.342Z,14.21
2023-04-24T05:23:33.338Z,14.44
2023-04-24T05:26:01.292Z,14.68
2023-04-24T05:28:30.458Z,14.82
2023-04-24T05:30:58.955Z,14.83
2023-04-24T05:33:26.923Z,14.99
2023-04-24T05:35:54.849Z,15.15
2023-04-24T05:38:24.143Z,15.13
2023-04-24T05:40:52.082Z,15.20
2023-04-24T05:43:19.984Z,15.13
2023-04-24T05:45:47.896Z,15.28
2023-04-24T05:48:15.924Z,15.39
2023-04-24T05:50:44.826Z,15.67
2023-04-24T05:53:12.815Z,15.78
2023-04-24T05:55:42.737Z,15.92
2023-04-24T05:58:10.633Z,16.04
2023-04-24T06:00:38.832Z,16.25
2023-04-24T06:03:06.979Z,16.45
2023-04-24T06:05:35.148Z,16.73
2023-04-24T06:08:03.063Z,16.97
2023-04-24T06:10:31.045Z,17.29
2023-04-24T06:13:01.621Z,17.61
2023-04-24T06:15:31.378Z,17.76
2023-04-24T06:17:59.873Z,17.87
2023-04-24T06:20:28.387Z,18.00
2023-04-24T06:22:56.398Z,18.11
2023-04-24T06:25:24.403Z,18.35
2023-04-24T06:27:52.376Z,18.53
2023-04-24T06:30:21.680Z,18.68
2023-04-24T06:32:49.653Z,18.83
2023-04-24T06:35:17.732Z,19.07
2023-04-24T06:37:45.918Z,19.08
2023-04-24T06:40:14.046Z,19.20
2023-04-24T06:42:42.004Z,19.49
2023-04-24T06:45:10.311Z,19.67
2023-04-24T06:47:40.078Z,19.83
2023-04-24T06:50:09.395Z,19.89
2023-04-24T06:52:37.723Z,20.16
2023-04-24T06:55:06.858Z,19.86
2023-04-24T06:57:34.754Z,19.89
2023-04-24T07:00:02.982Z,20.08
2023-04-24T07:02:31.021Z,19.83
2023-04-24T07:05:00.379Z,19.81
2023-04-24T07:07:28.664Z,19.86
2023-04-24T07:09:57.398Z,20.05
2023-04-24T07:12:25.321Z,20.15
2023-04-24T07:14:53.288Z,20.17
2023-04-24T07:17:21.230Z,20.56
2023-04-24T07:19:49.145Z,20.68
2023-04-24T07:22:18.778Z,20.91
2023-04-24T07:24:46.866Z,21.08
2023-04-24T07:27:16.024Z,21.08
2023-04-24T07:29:44.847Z,21.08
2023-04-24T07:32:13.221Z,21.22
2023-04-24T07:34:41.567Z,21.29
2023-04-24T07:37:09.547Z,21.42
2023-04-24T07:39:38.853Z,21.59
2023-04-24T07:42:06.858Z,21.69
2023-04-24T07:44:34.771Z,21.79
2023-04-24T07:47:02.709Z,21.78
2023-04-24T07:49:30.641Z,21.88
2023-04-24T07:51:58.568Z,22.03
2023-04-24T07:54:26.505Z,21.68
2023-04-24T07:56:55.776Z,22.00
2023-04-24T07:59:23.692Z,21.61
2023-04-24T08:01:51.872Z,21.45
2023-04-24T08:04:20.118Z,21.75
2023-04-24T08:06:49.742Z,21.61
2023-04-24T08:09:17.795Z,20.96
2023-04-24T08:11:46.116Z,21.25
2023-04-24T08:14:16.051Z,21.70
2023-04-24T08:16:44.466Z,22.04
2023-04-24T08:19:12.581Z,21.95
2023-04-24T08:21:40.649Z,21.68
2023-04-24T08:24:09.536Z,21.20
2023-04-24T08:26:37.532Z,21.71
2023-04-24T08:29:05.507Z,21.86
2023-04-24T08:31:35.050Z,22.31
2023-04-24T08:34:03.256Z,22.58
2023-04-24T08:36:43.582Z,22.94
2023-04-24T08:39:15.364Z,23.25
2023-04-24T08:41:46.449Z,23.07
2023-04-24T08:44:17.148Z,22.78
2023-04-24T08:46:48.618Z,22.26
2023-04-24T08:49:17.771Z,22.82
2023-04-24T08:51:48.053Z,22.81
2023-04-24T08:54:16.054Z,22.52
2023-04-24T08:56:46.886Z,22.71
2023-04-24T08:59:16.361Z,22.79
2023-04-24T09:01:47.505Z,23.22
2023-04-24T09:04:19.165Z,23.56
2023-04-24T09:06:47.716Z,22.85
2023-04-24T09:09:17.230Z,22.44
2023-04-24T09:11:45.520Z,22.37
2023-04-24T09:14:13.736Z,22.10
2023-04-24T09:16:42.225Z,22.90
2023-04-24T09:19:11.702Z,23.20
2023-04-24T09:21:39.861Z,23.50
2023-04-24T09:24:10.895Z,23.63
2023-04-24T09:26:39.036Z,23.54
2023-04-24T09:29:06.962Z,24.18
2023-04-24T09:31:35.054Z,24.27
2023-04-24T09:34:08.235Z,23.52
2023-04-24T09:36:39.514Z,23.98
2023-04-24T09:39:09.414Z,23.94
2023-04-24T09:41:38.103Z,24.22
2023-04-24T09:44:14.312Z,24.21
2023-04-24T09:46:43.768Z,24.47
2023-04-24T09:49:14.377Z,24.09
2023-04-24T09:51:44.149Z,24.23
2023-04-24T09:54:21.052Z,23.33
2023-04-24T09:56:51.132Z,23.62
2023-04-24T09:59:20.792Z,23.85
2023-04-24T10:01:50.444Z,24.05
2023-04-24T10:04:20.575Z,24.36
2023-04-24T10:06:51.418Z,24.78
2023-04-24T10:09:21.023Z,24.97
2023-04-24T10:11:50.931Z,24.06
2023-04-24T10:14:21.720Z,24.43
2023-04-24T10:16:50.518Z,23.81
2023-04-24T10:19:20.204Z,24.26
2023-04-24T10:21:49.688Z,24.06
2023-04-24T10:24:19.006Z,24.64
2023-04-24T10:26:49.656Z,24.79
2023-04-24T10:29:22.546Z,24.25
2023-04-24T10:31:50.664Z,24.29
2023-04-24T10:34:23.059Z,24.46
2023-04-24T10:36:57.767Z,23.84
2023-04-24T10:39:27.875Z,24.14
2023-04-24T10:41:58.595Z,24.22
2023-04-24T10:44:27.897Z,24.07
2023-04-24T10:46:57.731Z,24.23
2023-04-24T10:49:31.971Z,24.27
2023-04-24T10:52:06.553Z,24.07
2023-04-24T10:54:39.095Z,24.12
2023-04-24T10:57:30.546Z,24.25
2023-04-24T11:00:20.707Z,24.25
2023-04-24T11:02:54.233Z,24.14
2023-04-24T11:05:23.204Z,24.12
2023-04-24T11:08:15.485Z,23.64
2023-04-24T11:10:46.701Z,22.37
2023-04-24T11:13:18.101Z,22.09
2023-04-24T11:15:46.146Z,22.59
2023-04-24T11:18:17.950Z,22.65
2023-04-24T11:20:46.631Z,22.30
2023-04-24T11:23:17.139Z,22.43
2023-04-24T11:25:45.233Z,22.30
2023-04-24T11:28:18.085Z,22.46
2023-04-24T11:30:46.028Z,22.50
2023-04-24T11:33:22.191Z,22.80
2023-04-24T11:35:50.662Z,22.99
2023-04-24T11:38:24.659Z,22.48
2023-04-24T11:40:54.356Z,21.98
2023-04-24T11:43:23.345Z,21.65
2023-04-24T11:45:52.172Z,22.23
2023-04-24T11:48:23.364Z,22.51
2023-04-24T11:50:51.768Z,22.16
2023-04-24T11:53:23.018Z,22.51
2023-04-24T11:55:51.078Z,22.59
2023-04-24T11:58:23.251Z,22.26
2023-04-24T12:00:58.656Z,22.83
2023-04-24T12:03:26.709Z,23.27
2023-04-24T12:05:55.258Z,23.71
2023-04-24T12:08:31.249Z,24.00
2023-04-24T12:11:00.415Z,24.05
2023-04-24T12:13:28.629Z,23.52
2023-04-24T12:15:56.942Z,23.45
2023-04-24T12:18:25.964Z,23.53
2023-04-24T12:20:54.526Z,23.47
2023-04-24T12:23:37.585Z,23.69
2023-04-24T12:26:06.315Z,23.60
2023-04-24T12:28:38.373Z,23.14
2023-04-24T12:31:06.897Z,23.41
2023-04-24T12:33:35.600Z,23.48
2023-04-24T12:36:03.993Z,23.01
2023-04-24T12:38:32.182Z,22.49
2023-04-24T12:41:09.101Z,22.60
2023-04-24T12:43:37.744Z,22.84
2023-04-24T12:46:06.197Z,22.53
2023-04-24T12:48:34.889Z,22.97
2023-04-24T12:51:02.926Z,23.12
2023-04-24T12:53:32.452Z,23.14
2023-04-24T12:56:00.475Z,23.13
2023-04-24T12:58:29.987Z,23.25
2023-04-24T13:00:57.989Z,22.84
2023-04-24T13:03:26.848Z,22.55
2023-04-24T13:05:54.817Z,22.53
2023-04-24T13:08:22.764Z,22.77
2023-04-24T13:10:52.093Z,23.16
2023-04-24T13:13:20.076Z,22.61
2023-04-24T13:15:49.372Z,22.73
2023-04-24T13:18:17.273Z,22.84
2023-04-24T13:20:45.214Z,22.94
2023-04-24T13:23:13.308Z,23.36
2023-04-24T13:25:41.351Z,23.41
2023-04-24T13:28:09.378Z,23.08
2023-04-24T13:30:37.505Z,23.43
2023-04-24T13:33:06.978Z,23.13
2023-04-24T13:35:34.936Z,22.52
2023-04-24T13:38:06.960Z,22.28
2023-04-24T13:40:35.365Z,22.42
2023-04-24T13:43:03.817Z,22.63
2023-04-24T13:45:31.752Z,21.94
2023-04-24T13:47:59.812Z,21.78
2023-04-24T13:50:29.168Z,22.37
2023-04-24T13:52:57.868Z,22.76
2023-04-24T13:55:25.825Z,22.88
2023-04-24T13:57:56.080Z,22.68
2023-04-24T14:00:24.640Z,22.69
2023-04-24T14:02:52.783Z,22.93
2023-04-24T14:05:22.756Z,23.05
2023-04-24T14:07:52.671Z,22.49
2023-04-24T14:10:20.676Z,22.52
2023-04-24T14:12:48.672Z,22.90
2023-04-24T14:15:16.720Z,23.00
2023-04-24T14:17:44.709Z,22.77
2023-04-24T14:20:14.343Z,22.91
2023-04-24T14:22:42.256Z,23.03
2023-04-24T14:25:11.856Z,23.16
2023-04-24T14:27:41.116Z,23.23
2023-04-24T14:30:10.281Z,22.91
2023-04-24T14:32:38.238Z,22.99
2023-04-24T14:35:07.212Z,23.11
2023-04-24T14:37:35.348Z,23.19
2023-04-24T14:40:29.418Z,22.91
2023-04-24T14:42:54.415Z,22.33
2023-04-24T14:45:22.314Z,22.52
2023-04-24T14:47:50.246Z,22.60
2023-04-24T14:50:18.187Z,22.30
2023-04-24T14:52:46.156Z,22.34
2023-04-24T14:55:14.604Z,22.49
2023-04-24T14:57:42.828Z,22.61
2023-04-24T15:00:13.372Z,22.68
2023-04-24T15:02:43.113Z,22.66
2023-04-24T15:05:11.720Z,22.74
2023-04-24T15:07:40.233Z,22.77
2023-04-24T15:10:09.280Z,22.63
2023-04-24T15:12:37.511Z,22.56
2023-04-24T15:15:07.938Z,22.36
2023-04-24T15:17:37.353Z,22.38
2023-04-24T15:20:07.394Z,22.41
2023-04-24T15:22:35.588Z,22.38
2023-04-24T15:25:03.807Z,22.36
2023-04-24T15:27:42.190Z,22.27
2023-04-24T15:30:11.562Z,22.16
2023-04-24T15:32:41.054Z,22.10
2023-04-24T15:35:10.578Z,22.16
2023-04-24T15:37:38.988Z,22.05
2023-04-24T15:40:08.779Z,21.96
2023-04-24T15:42:36.962Z,21.88
2023-04-24T15:45:05.500Z,21.83
2023-04-24T15:47:34.820Z,21.90
2023-04-24T15:50:04.640Z,21.77
2023-04-24T15:52:32.609Z,21.70
2023-04-24T15:55:00.715Z,21.41
2023-04-24T15:57:28.653Z,21.17
2023-04-24T15:59:56.769Z,21.13
2023-04-24T16:02:25.083Z,21.08
2023-04-24T16:04:53.710Z,21.07
2023-04-24T16:07:23.123Z,21.07
2023-04-24T16:09:51.038Z,21.04
2023-04-24T16:12:19.035Z,20.81
2023-04-24T16:14:47.101Z,20.80
2023-04-24T16:17:15.058Z,20.59
2023-04-24T16:19:43.181Z,20.26
2023-04-24T16:22:11.124Z,19.98
2023-04-24T16:24:40.416Z,19.83
2023-04-24T16:27:08.362Z,19.84
2023-04-24T16:29:36.276Z,19.49
2023-04-24T16:32:04.280Z,19.29
2023-04-24T16:34:32.186Z,19.50
2023-04-24T16:37:00.671Z,19.42
2023-04-24T16:39:28.767Z,19.05
2023-04-24T16:41:59.768Z,19.34
2023-04-24T16:44:28.253Z,19.25
2023-04-24T16:46:56.938Z,19.01
2023-04-24T16:49:25.116Z,18.94
2023-04-24T16:51:53.096Z,18.81
2023-04-24T16:54:21.023Z,18.71
2023-04-24T16:56:48.981Z,18.56
2023-04-24T16:59:18.276Z,18.37
2023-04-24T17:01:46.224Z,18.65
2023-04-24T17:04:14.290Z,18.68
2023-04-24T17:06:42.327Z,18.71
2023-04-24T17:09:12.195Z,18.59
2023-04-24T17:11:40.205Z,18.18
2023-04-24T17:14:08.121Z,17.85
2023-04-24T17:16:38.520Z,17.74
2023-04-24T17:19:06.991Z,17.71
2023-04-24T17:21:35.054Z,17.74
2023-04-24T17:24:03.097Z,17.58
2023-04-24T17:26:32.385Z,17.40
2023-04-24T17:29:00.443Z,17.28
2023-04-24T17:31:28.394Z,17.53
2023-04-24T17:33:57.979Z,17.54
2023-04-24T17:36:25.934Z,17.50
2023-04-24T17:38:53.899Z,17.55
2023-04-24T17:41:21.817Z,17.51
2023-04-24T17:43:49.759Z,17.45
2023-04-24T17:46:17.772Z,17.40
2023-04-24T17:48:47.591Z,17.47
2023-04-24T17:51:18.275Z,17.26
2023-04-24T17:53:46.189Z,16.96
2023-04-24T17:56:14.141Z,16.95
2023-04-24T17:58:42.101Z,16.80
2023-04-24T18:01:10.072Z,16.98
2023-04-24T18:03:38.524Z,16.91
2023-04-24T18:06:07.429Z,16.79
2023-04-24T18:08:36.795Z,16.79
2023-04-24T18:11:04.798Z,16.78
2023-04-24T18:13:32.781Z,16.65
2023-04-24T18:16:00.778Z,16.85
2023-04-24T18:18:28.703Z,16.90
2023-04-24T18:20:56.747Z,16.79
2023-04-24T18:23:24.685Z,16.82
2023-04-24T18:25:54.017Z,16.59
2023-04-24T18:28:21.930Z,16.69
2023-04-24T18:30:49.861Z,16.74
2023-04-24T18:33:19.085Z,16.79
2023-04-24T18:35:47.032Z,16.65
2023-04-24T18:38:14.974Z,16.51
2023-04-24T18:40:43.403Z,16.58
2023-04-24T18:43:12.726Z,16.59
2023-04-24T18:45:40.638Z,16.65
2023-04-24T18:48:08.685Z,16.74
2023-04-24T18:50:38.928Z,16.64
2023-04-24T18:53:07.268Z,16.74
2023-04-24T18:55:36.006Z,16.86
2023-04-24T18:58:03.987Z,16.90
2023-04-24T19:00:33.433Z,16.89
2023-04-24T19:03:01.613Z,16.72
2023-04-24T19:05:29.560Z,16.58
2023-04-24T19:07:57.450Z,16.31
2023-04-24T19:10:25.469Z,16.45
2023-04-24T19:12:56.644Z,16.26
2023-04-24T19:15:25.043Z,16.28
2023-04-24T19:17:54.360Z,16.20
2023-04-24T19:20:22.402Z,16.08
2023-04-24T19:22:50.366Z,16.03
2023-04-24T19:25:18.415Z,16.03
2023-04-24T19:27:46.368Z,16.19
2023-04-24T19:30:14.636Z,15.97
2023-04-24T19:32:42.543Z,16.03
2023-04-24T19:35:11.927Z,15.84
2023-04-24T19:37:40.121Z,15.88
2023-04-24T19:40:09.482Z,15.86
2023-04-24T19:45:11.161Z,15.85
2023-04-24T19:47:39.160Z,15.59
2023-04-24T19:50:08.554Z,15.73
2023-04-24T19:52:37.834Z,15.82
2023-04-24T19:55:06.178Z,15.72
2023-04-24T19:57:34.106Z,15.69
2023-04-24T20:00:02.048Z,15.65
2023-04-24T20:02:30.025Z,15.79
2023-04-24T20:04:58.090Z,15.71
2023-04-24T20:07:26.355Z,15.68
2023-04-24T20:09:55.674Z,15.57
2023-04-24T20:12:23.772Z,15.66
2023-04-24T20:14:51.880Z,15.56
2023-04-24T20:17:19.987Z,15.65
2023-04-24T20:19:47.996Z,15.70
2023-04-24T20:22:16.109Z,15.71
2023-04-24T20:24:44.584Z,15.68
2023-04-24T20:27:14.608Z,15.69
2023-04-24T20:29:42.742Z,15.80
2023-04-24T20:32:10.867Z,15.83
2023-04-24T20:34:38.845Z,15.67
2023-04-24T20:37:06.800Z,15.65
2023-04-24T20:39:34.743Z,15.41
2023-04-24T20:42:02.708Z,15.25
2023-04-24T20:44:32.055Z,15.32
2023-04-24T20:47:00.089Z,15.06
2023-04-24T20:49:28.270Z,14.99
2023-04-24T20:51:56.344Z,14.88
2023-04-24T20:54:24.245Z,14.90
2023-04-24T20:56:52.289Z,14.88
2023-04-24T20:59:20.216Z,15.06
2023-04-24T21:01:50.769Z,14.92
2023-04-24T21:04:18.826Z,14.77
2023-04-24T21:06:47.825Z,14.88
2023-04-24T21:09:15.755Z,14.63
2023-04-24T21:11:43.724Z,14.77
2023-04-24T21:14:11.679Z,14.70
2023-04-24T21:16:39.675Z,14.53
2023-04-24T21:19:08.975Z,14.57
2023-04-24T21:21:36.936Z,14.42
2023-04-24T21:24:05.170Z,14.55
2023-04-24T21:26:33.376Z,14.58
2023-04-24T21:29:01.312Z,14.68
2023-04-24T21:31:29.310Z,14.53
2023-04-24T21:33:57.226Z,14.68
2023-04-24T21:36:26.869Z,14.69
2023-04-24T21:38:55.446Z,14.65
2023-04-24T21:41:24.728Z,14.63
2023-04-24T21:43:52.956Z,14.65
2023-04-24T21:46:21.214Z,14.67
2023-04-24T21:48:49.165Z,14.73
2023-04-24T21:51:18.100Z,14.75
2023-04-24T21:53:47.699Z,14.90
2023-04-24T21:56:15.808Z,14.90
2023-04-24T21:58:44.018Z,14.77
2023-04-24T22:01:12.168Z,14.89
2023-04-24T22:03:40.245Z,14.84
2023-04-24T22:06:08.459Z,14.84
2023-04-24T22:08:36.483Z,14.89
2023-04-24T22:11:13.559Z,14.97
2023-04-24T22:13:48.371Z,14.87
2023-04-24T22:16:17.047Z,15.04
2023-04-24T22:18:47.571Z,15.14
2023-04-24T22:21:16.092Z,15.19
2023-04-24T22:23:44.026Z,15.21
2023-04-24T22:26:13.505Z,15.15
2023-04-24T22:28:41.400Z,15.13
2023-04-24T22:31:09.679Z,15.19
2023-04-24T22:33:37.721Z,15.11
2023-04-24T22:36:05.978Z,14.85
2023-04-24T22:38:34.028Z,14.88
2023-04-24T22:41:02.300Z,14.72
2023-04-24T22:43:31.862Z,14.42
2023-04-24T22:45:59.763Z,14.57
2023-04-24T22:48:27.691Z,14.74
2023-04-24T22:50:56.097Z,14.80
2023-04-24T22:53:24.247Z,14.84
2023-04-24T22:55:52.250Z,14.79
2023-04-24T22:58:20.370Z,14.65
2023-04-24T23:00:49.704Z,14.78
2023-04-24T23:03:17.838Z,14.87
2023-04-24T23:05:45.854Z,14.81
2023-04-24T23:08:13.810Z,14.31
2023-04-24T23:10:42.192Z,14.48
2023-04-24T23:13:10.115Z,14.67
2023-04-24T23:15:39.442Z,14.67
2023-04-24T23:18:08.799Z,14.38
2023-04-24T23:20:37.599Z,14.47
2023-04-24T23:23:05.684Z,14.61
2023-04-24T23:25:33.953Z,14.66
2023-04-24T23:28:01.839Z,14.73
2023-04-24T23:30:29.918Z,14.71
2023-04-24T23:32:57.938Z,14.44
2023-04-24T23:35:27.376Z,14.51
2023-04-24T23:37:56.258Z,14.65
2023-04-24T23:40:24.425Z,14.61
2023-04-24T23:43:05.658Z,14.67
2023-04-24T23:45:35.704Z,14.64
2023-04-24T23:48:04.209Z,14.61
2023-04-24T23:50:33.619Z,14.54
2023-04-24T23:53:01.676Z,14.27
2023-04-24T23:55:29.652Z,14.21
2023-04-24T23:57:57.601Z,14.21
